Airfield :
LOGIN :

Register | Disclaimer

   EN    FR    IT 

 










Legend :    VFR   Marginal VFR   IFR   Intensive IFR   Very Intensive IFR
Visi :
Ceiling :
>= 8 km
>= 3000ft
5 to 8 km
1000 to 3000 ft
1500m to 5 km
500 to 1000 ft
800 to 1500m
200 to 500 ft
< 800m
< 200 ft
Symbols :   Thunderstorms  Fog  Heavy snow  Heavy precipitations  Wind > 20 kt
SIGMETs :     Misc.  Thunderstorms  Icing  Turbulence  Mountain Waves  Volcanic Ashes






- Airport Elevation : 195 ft


LFMY - Salon de Provence

CURRENT METAR :
  • 030130Z AUTO 00000KT 9999 SCT010 BKN019 16/15 Q1012

EXPIRED METARs :
  • 030100Z AUTO 00000KT 9999 BKN018 16/15 Q1012
  • 030030Z AUTO 00000KT 9999 BKN016 16/15 Q1012
  • 030000Z AUTO 00000KT 9999 BKN013 16/16 Q1012
  • 022330Z AUTO 00000KT 9999 FEW013 17/16 Q1012
  • 022300Z AUTO 00000KT 9999 FEW012 17/15 Q1013

TAF TAF LFMY
Valid from the 02 at 21:00 until the 03 at 21:00 UTC


022000Z 0221/0321 21010KT CAVOK
BECMG 0221/0222 BKN010



MET'MAP, your aeronautical weather chart ! - Copyright ORBIFLY December 2007 - Disclaimer

ORBIFLY MET'MAP TEAM :

Programming & Development : Alexandra Zaïnal
Concept & original design : Baudouin d'Aumeries
Assistance for programming : Marc-Olivier Méhu
Technical & hardware support : Manuel Goepfert

Contact : metmap@orbifly.com




SOURCES & CREDITS :

   NOAA